Time;durP1;ratioP1;P1;durP2;ratioP2;P2;SDS_P1;SDS_P2;PMS_P1;PMS_P2;Temp;Humidity;BMP_temperature;BMP_pressure;BME280_temperature;BME280_humidity;BME280_pressure;Samples;Min_cycle;Max_cycle;Signal;HPM_P1;HPM_P2
2024/03/04 00:00:43;;;;;;;9.40;3.15;;;281.90;2278.40;;;;;;5016655;28;20036;-70
2024/03/04 00:03:09;;;;;;;7.50;3.30;;;282.00;2278.40;;;;;;5016456;28;20256;-70
2024/03/04 00:05:35;;;;;;;7.75;4.03;;;281.90;2278.40;;;;;;5025826;28;20032;-71
2024/03/04 00:08:02;;;;;;;7.35;3.40;;;281.80;2278.40;;;;;;5027790;28;20021;-70
2024/03/04 00:10:31;;;;;;;11.07;6.07;;;281.90;2278.40;;;;;;5024114;28;20101;-70
2024/03/04 00:12:57;;;;;;;13.57;7.80;;;281.70;2278.40;;;;;;5010507;28;20100;-70
2024/03/04 00:15:23;;;;;;;23.17;14.55;;;282.00;2278.40;;;;;;5011639;28;20037;-76
2024/03/04 00:17:50;;;;;;;16.67;10.82;;;281.60;2278.40;;;;;;5018449;28;20494;-71
2024/03/04 00:20:16;;;;;;;10.10;7.32;;;256.20;2252.80;;;;;;5027895;28;20026;-75
2024/03/04 00:22:45;;;;;;;9.52;5.93;;;256.00;2252.80;;;;;;5027831;28;20392;-71
2024/03/04 00:25:15;;;;;;;9.98;6.68;;;231.20;2252.80;;;;;;5026462;28;20079;-73
2024/03/04 00:27:42;;;;;;;12.15;6.95;;;231.20;2252.80;;;;;;5028415;28;20071;-71
2024/03/04 00:30:08;;;;;;;10.30;6.78;;;;;;;;;;5025936;28;20395;-71
2024/03/04 00:32:35;;;;;;;8.80;5.07;;;;;;;;;;5009469;28;20019;-71
2024/03/04 00:35:01;;;;;;;7.85;4.70;;;;;;;;;;5017567;28;20064;-68
2024/03/04 00:37:27;;;;;;;9.57;4.95;;;;;;;;;;5020455;28;20484;-71
2024/03/04 00:39:53;;;;;;;8.40;4.93;;;;;;;;;;5021085;28;20021;-67
2024/03/04 00:42:19;;;;;;;10.38;3.85;;;;;;;;;;5029856;28;20527;-68
2024/03/04 00:44:45;;;;;;;6.78;4.28;;;;;;;;;;5012227;28;20030;-69
2024/03/04 00:47:11;;;;;;;4.25;2.40;;;;;;;;;;5022193;28;20514;-70
2024/03/04 00:49:37;;;;;;;4.57;2.58;;;;;;;;;;5024237;28;20030;-69
2024/03/04 00:52:03;;;;;;;5.15;2.97;;;;;;;;;;5014619;28;20036;-71
2024/03/04 00:54:29;;;;;;;4.55;2.42;;;;;;;;;;5012013;28;20018;-71
2024/03/04 00:56:55;;;;;;;8.75;4.45;;;281.70;2278.40;;;;;;5004613;28;20030;-71
2024/03/04 00:59:23;;;;;;;5.75;3.50;;;256.90;2252.80;;;;;;5010329;28;20026;-70
2024/03/04 01:01:50;;;;;;;6.82;4.30;;;256.80;2252.80;;;;;;5015891;28;20029;-70
2024/03/04 01:04:16;;;;;;;10.63;3.45;;;256.80;2252.80;;;;;;5012608;28;20510;-69
2024/03/04 01:06:42;;;;;;;5.43;2.60;;;256.80;2252.80;;;;;;5021295;28;20034;-72
2024/03/04 01:09:10;;;;;;;3.42;2.17;;;256.80;2252.80;;;;;;5010208;28;21397;-71
2024/03/04 01:11:36;;;;;;;4.95;2.80;;;256.90;2252.80;;;;;;5013066;28;20384;-70
2024/03/04 01:14:02;;;;;;;4.00;2.60;;;256.80;2252.80;;;;;;5018006;28;20022;-70
2024/03/04 01:16:30;;;;;;;7.20;4.97;;;256.70;2252.80;;;;;;5015133;28;20436;-68
2024/03/04 01:18:56;;;;;;;12.02;9.20;;;256.60;2252.80;;;;;;5021790;28;20029;-70
2024/03/04 01:21:24;;;;;;;13.98;10.70;;;256.40;2252.80;;;;;;5016258;28;20088;-71
2024/03/04 01:23:51;;;;;;;14.10;10.75;;;256.30;2252.80;;;;;;5019261;28;20121;-71
2024/03/04 01:26:17;;;;;;;9.88;8.45;;;256.20;2252.80;;;;;;5018871;28;20165;-70
2024/03/04 01:28:43;;;;;;;9.55;7.70;;;256.00;2252.80;;;;;;5022352;28;20049;-71
2024/03/04 01:31:09;;;;;;;15.00;10.93;;;231.30;2252.80;;;;;;5018041;28;20071;-71
2024/03/04 01:33:36;;;;;;;15.98;8.35;;;231.10;2252.80;;;;;;5021287;28;20058;-77
2024/03/04 01:36:03;;;;;;;11.30;8.45;;;;;;;;;;5015868;28;20418;-67
2024/03/04 01:38:29;;;;;;;10.25;7.18;;;;;;;;;;4995779;28;20034;-71
2024/03/04 01:40:55;;;;;;;12.10;6.15;;;;;;;;;;5014830;28;20021;-71
2024/03/04 01:43:21;;;;;;;16.58;8.27;;;;;;;;;;5011755;28;20568;-73
2024/03/04 01:45:47;;;;;;;11.18;4.80;;;;;;;;;;5015287;28;20479;-71
2024/03/04 01:48:13;;;;;;;14.25;9.30;;;;;;;;;;5021503;28;20026;-71
2024/03/04 01:50:43;;;;;;;11.32;4.93;;;;;;;;;;5020488;28;20038;-71
2024/03/04 01:53:09;;;;;;;10.40;5.38;;;;;;;;;;5018788;28;20044;-73
2024/03/04 01:55:45;;;;;;;10.63;5.47;;;230.90;2252.80;;;;;;4992780;28;20034;-70
2024/03/04 01:58:12;;;;;;;19.20;11.70;;;;;;;;;;5023988;28;20018;-70
2024/03/04 02:00:42;;;;;;;10.82;4.63;;;;;;;;;;5012817;28;20030;-71
2024/03/04 02:03:09;;;;;;;10.45;5.18;;;;;;;;;;5006667;28;20140;-69
2024/03/04 02:05:36;;;;;;;11.95;5.88;;;;;;;;;;5026531;28;20078;-71
2024/03/04 02:08:02;;;;;;;10.88;5.88;;;;;;;;;;5028354;28;20018;-70
2024/03/04 02:10:29;;;;;;;9.80;5.85;;;;;;;;;;5026245;28;20021;-74
2024/03/04 02:12:56;;;;;;;16.77;9.95;;;;;;;;;;5027193;28;20448;-72
2024/03/04 02:15:23;;;;;;;10.60;5.70;;;;;;;;;;5024143;28;20477;-71
2024/03/04 02:17:48;;;;;;;30.83;27.95;;;230.50;2252.80;;;;;;5009586;28;20022;-73
2024/03/04 02:20:17;;;;;;;11.77;10.15;;;230.40;2252.80;;;;;;5010494;28;20496;-73
2024/03/04 02:22:43;;;;;;;7.93;4.32;;;205.70;2252.80;;;;;;4991871;28;20034;-75
2024/03/04 02:25:11;;;;;;;7.07;4.55;;;205.60;2252.80;;;;;;5010333;28;20040;-71
2024/03/04 02:27:38;;;;;;;6.32;3.30;;;205.40;2252.80;;;;;;5010240;28;20042;-70
2024/03/04 02:30:07;;;;;;;7.18;3.70;;;;;;;;;;5010402;28;20076;-75
2024/03/04 02:32:32;;;;;;;6.30;2.92;;;205.40;2252.80;;;;;;5010014;28;20395;-69
2024/03/04 02:35:03;;;;;;;7.18;4.25;;;205.40;2252.80;;;;;;5010245;28;20022;-75
2024/03/04 02:37:28;;;;;;;6.13;3.10;;;205.40;2252.80;;;;;;4997441;28;20022;-69
2024/03/04 02:39:57;;;;;;;7.45;3.78;;;205.40;2252.80;;;;;;5009494;28;20109;-69
2024/03/04 02:42:23;;;;;;;8.25;2.70;;;205.40;2252.80;;;;;;5010176;28;20034;-74
2024/03/04 02:44:48;;;;;;;6.55;2.67;;;205.50;2252.80;;;;;;5010173;28;20588;-71
2024/03/04 02:47:15;;;;;;;5.47;2.25;;;205.70;2252.80;;;;;;5010155;28;20026;-69
2024/03/04 02:49:41;;;;;;;5.60;2.17;;;230.50;2252.80;;;;;;5008611;28;20145;-71
2024/03/04 02:52:08;;;;;;;5.32;2.25;;;230.60;2252.80;;;;;;5009618;28;20117;-68
2024/03/04 02:54:34;;;;;;;100.45;84.03;;;230.70;2252.80;;;;;;5009328;28;20025;-74
2024/03/04 02:56:59;;;;;;;11.80;6.65;;;230.60;2252.80;;;;;;5009716;28;20212;-71
2024/03/04 02:59:25;;;;;;;21.05;12.05;;;205.70;2252.80;;;;;;5009542;28;20060;-69
2024/03/04 03:01:51;;;;;;;10.73;6.95;;;230.50;2252.80;;;;;;5009289;28;20049;-70
2024/03/04 03:04:17;;;;;;;10.55;6.57;;;205.40;2252.80;;;;;;5009661;28;20088;-69
2024/03/04 03:06:43;;;;;;;12.30;7.10;;;205.10;2252.80;;;;;;5009250;28;20021;-71
2024/03/04 03:09:10;;;;;;;11.48;7.57;;;204.90;2252.80;;;;;;5008908;28;20037;-70
2024/03/04 03:11:36;;;;;;;8.73;6.25;;;204.80;2252.80;;;;;;5009181;28;20026;-71
2024/03/04 03:14:03;;;;;;;12.20;6.55;;;204.80;2252.80;;;;;;5009090;28;20028;-72
2024/03/04 03:16:29;;;;;;;10.95;6.07;;;204.80;2252.80;;;;;;5009200;28;20018;-73
2024/03/04 03:18:57;;;;;;;9.15;4.22;;;180.10;2252.80;;;;;;5009461;28;20026;-71
2024/03/04 03:21:26;;;;;;;9.32;3.90;;;180.00;2252.80;;;;;;5008870;28;20032;-74
2024/03/04 03:23:51;;;;;;;7.55;3.80;;;179.90;2252.80;;;;;;5008945;28;20384;-73
2024/03/04 03:26:17;;;;;;;7.35;3.53;;;179.90;2252.80;;;;;;5008910;28;20038;-75
2024/03/04 03:28:44;;;;;;;6.90;3.10;;;179.90;2252.80;;;;;;5009246;28;20034;-71
2024/03/04 03:31:11;;;;;;;8.00;4.35;;;179.90;2252.80;;;;;;5008922;28;20033;-70
2024/03/04 03:33:37;;;;;;;6.97;4.05;;;180.00;2252.80;;;;;;5009116;28;20041;-73
2024/03/04 03:36:05;;;;;;;7.93;3.70;;;204.80;2252.80;;;;;;5008540;28;20049;-74
2024/03/04 03:38:32;;;;;;;9.85;7.25;;;204.80;2252.80;;;;;;5008965;28;20022;-72
2024/03/04 03:40:59;;;;;;;7.38;4.55;;;204.80;2252.80;;;;;;5008498;28;20021;-70
2024/03/04 03:43:24;;;;;;;5.90;2.55;;;204.90;2252.80;;;;;;5008592;28;20065;-70
2024/03/04 03:45:51;;;;;;;7.20;2.58;;;204.90;2252.80;;;;;;4991217;28;20026;-70
2024/03/04 03:48:19;;;;;;;3.63;2.22;;;205.20;2252.80;;;;;;5009415;28;20790;-72
2024/03/04 03:50:46;;;;;;;5.88;2.60;;;205.40;2252.80;;;;;;5008896;28;20037;-71
2024/03/04 03:53:12;;;;;;;11.63;4.97;;;205.60;2252.80;;;;;;5008819;28;20025;-69
2024/03/04 03:55:38;;;;;;;29.13;13.82;;;205.70;2252.80;;;;;;5008685;28;20033;-73
2024/03/04 03:58:04;;;;;;;12.65;7.03;;;205.70;2252.80;;;;;;5008777;28;20026;-75
2024/03/04 04:00:30;;;;;;;6.90;3.42;;;230.40;2252.80;;;;;;5008572;28;20028;-71
2024/03/04 04:02:59;;;;;;;378.73;210.85;;;230.50;2252.80;;;;;;5012296;28;20021;-70
2024/03/04 04:05:25;;;;;;;89.22;46.35;;;230.50;2252.80;;;;;;4994927;28;20046;-84
2024/03/04 04:07:51;;;;;;;41.20;22.42;;;230.60;2252.80;;;;;;5013095;28;20034;-83
2024/03/04 04:10:16;;;;;;;22.50;12.85;;;230.50;2252.80;;;;;;5013133;28;20152;-82
2024/03/04 04:12:42;;;;;;;17.33;8.80;;;230.60;2252.80;;;;;;5012865;28;20018;-84
2024/03/04 04:15:09;;;;;;;10.20;4.28;;;230.60;2252.80;;;;;;5013099;28;20029;-84
2024/03/04 04:17:34;;;;;;;10.35;3.80;;;230.60;2252.80;;;;;;5012900;28;20714;-83
2024/03/04 04:20:00;;;;;;;12.63;11.07;;;230.70;2252.80;;;;;;5012676;28;20065;-81
2024/03/04 04:22:29;;;;;;;9.90;8.73;;;230.60;2252.80;;;;;;5012624;28;20384;-70
2024/03/04 04:24:55;;;;;;;11.68;6.45;;;230.40;2252.80;;;;;;5012162;28;20029;-71
2024/03/04 04:27:22;;;;;;;8.98;5.80;;;205.70;2252.80;;;;;;5012131;28;20046;-71
2024/03/04 04:29:49;;;;;;;7.90;4.55;;;205.70;2252.80;;;;;;4994721;28;20652;-70
2024/03/04 04:32:15;;;;;;;8.90;5.88;;;205.30;2252.80;;;;;;5012714;28;20025;-71
2024/03/04 04:34:44;;;;;;;9.18;5.45;;;205.00;2252.80;;;;;;5012138;28;20054;-70
2024/03/04 04:37:10;;;;;;;7.82;4.25;;;204.80;2252.80;;;;;;5012324;28;20072;-71
2024/03/04 04:39:42;;;;;;;7.97;5.63;;;180.10;2252.80;;;;;;5011842;28;20464;-71
2024/03/04 04:42:09;;;;;;;11.23;4.85;;;180.10;2252.80;;;;;;5012225;28;20038;-72
2024/03/04 04:44:34;;;;;;;11.30;5.53;;;180.10;2252.80;;;;;;5011762;28;20034;-70
2024/03/04 04:47:01;;;;;;;9.77;5.95;;;180.10;2252.80;;;;;;5012059;28;20029;-78
2024/03/04 04:49:27;;;;;;;10.70;5.70;;;180.10;2252.80;;;;;;5011976;28;20531;-71
2024/03/04 04:51:52;;;;;;;9.73;4.93;;;204.80;2252.80;;;;;;5011953;28;20037;-74
2024/03/04 04:54:18;;;;;;;8.55;5.25;;;204.90;2252.80;;;;;;5011815;28;20022;-75
2024/03/04 04:56:45;;;;;;;6.68;4.68;;;205.00;2252.80;;;;;;5011964;28;20022;-71
2024/03/04 04:59:11;;;;;;;8.38;4.85;;;205.10;2252.80;;;;;;5011598;28;20025;-70
2024/03/04 05:01:37;;;;;;;5.57;3.80;;;205.00;2252.80;;;;;;5011998;28;20029;-71
2024/03/04 05:04:03;;;;;;;11.10;5.55;;;205.10;2252.80;;;;;;5011491;28;20096;-73
2024/03/04 05:06:28;;;;;;;8.50;4.38;;;205.10;2252.80;;;;;;5011772;28;20065;-83
2024/03/04 05:08:54;;;;;;;8.77;4.20;;;205.00;2252.80;;;;;;5011821;28;20018;-83
2024/03/04 05:11:23;;;;;;;9.20;4.88;;;204.90;2252.80;;;;;;5011960;28;20026;-70
2024/03/04 05:13:49;;;;;;;10.55;3.88;;;205.00;2252.80;;;;;;5011226;28;20029;-82
2024/03/04 05:16:15;;;;;;;6.40;3.92;;;205.10;2252.80;;;;;;5011767;28;20018;-81
2024/03/04 05:18:41;;;;;;;6.85;3.28;;;205.00;2252.80;;;;;;5011500;28;20022;-79
2024/03/04 05:21:07;;;;;;;8.18;3.33;;;205.10;2252.80;;;;;;4999762;28;20026;-72
2024/03/04 05:23:33;;;;;;;5.50;2.53;;;205.30;2252.80;;;;;;5010044;28;20045;-70
2024/03/04 05:25:59;;;;;;;8.02;3.88;;;205.50;2252.80;;;;;;5010860;28;20491;-71
2024/03/04 05:28:26;;;;;;;5.63;2.95;;;205.70;2252.80;;;;;;5016508;28;20080;-71
2024/03/04 05:30:57;;;;;;;8.07;4.13;;;230.60;2252.80;;;;;;5011206;28;20029;-72
2024/03/04 05:33:23;;;;;;;8.38;3.55;;;230.70;2252.80;;;;;;5011105;28;20026;-72
2024/03/04 05:35:48;;;;;;;9.52;3.42;;;230.80;2252.80;;;;;;5011203;28;20021;-70
2024/03/04 05:38:14;;;;;;;6.57;2.45;;;230.90;2252.80;;;;;;5011249;28;20026;-69
2024/03/04 05:40:40;;;;;;;5.00;3.03;;;231.20;2252.80;;;;;;5010888;28;20084;-71
2024/03/04 05:43:07;;;;;;;9.55;5.65;;;231.30;2252.80;;;;;;5009826;28;20038;-71
2024/03/04 05:45:33;;;;;;;7.40;4.88;;;231.00;2252.80;;;;;;5021002;28;20049;-74
2024/03/04 05:47:59;;;;;;;46.25;33.70;;;230.90;2252.80;;;;;;5010962;28;20053;-70
2024/03/04 05:50:26;;;;;;;29.80;19.85;;;230.80;2252.80;;;;;;5010742;28;20042;-74
2024/03/04 05:52:52;;;;;;;28.70;20.92;;;230.60;2252.80;;;;;;5010607;28;20472;-70
2024/03/04 05:55:18;;;;;;;24.85;15.18;;;230.80;2252.80;;;;;;5010639;28;20084;-71
2024/03/04 05:57:45;;;;;;;21.45;12.77;;;230.90;2252.80;;;;;;5010811;28;20018;-70
2024/03/04 06:00:14;;;;;;;16.27;8.85;;;231.10;2252.80;;;;;;5010648;28;20371;-73
2024/03/04 06:02:42;;;;;;;29.40;20.63;;;231.20;2252.80;;;;;;5010845;28;20014;-72
2024/03/04 06:05:11;;;;;;;25.85;23.08;;;231.30;2252.80;;;;;;5010619;28;20029;-70
2024/03/04 06:07:37;;;;;;;22.38;14.13;;;256.30;2252.80;;;;;;5011323;28;20025;-71
2024/03/04 06:10:03;;;;;;;42.22;26.48;;;256.10;2252.80;;;;;;5010326;28;20034;-69
2024/03/04 06:12:29;;;;;;;13.77;8.98;;;256.50;2252.80;;;;;;5010806;28;20068;-73
2024/03/04 06:14:55;;;;;;;39.30;32.20;;;256.20;2252.80;;;;;;5010419;28;20018;-70
2024/03/04 06:17:21;;;;;;;36.22;29.95;;;256.60;2252.80;;;;;;5010504;28;20467;-70
2024/03/04 06:19:46;;;;;;;24.15;16.65;;;256.60;2252.80;;;;;;5010195;28;20517;-70
2024/03/04 06:22:15;;;;;;;21.33;16.58;;;256.50;2252.80;;;;;;5010398;28;20057;-70
2024/03/04 06:24:41;;;;;;;22.13;13.48;;;256.90;2252.80;;;;;;5009629;28;20030;-71
2024/03/04 06:27:08;;;;;;;15.73;8.95;;;;;;;;;;5010266;28;20124;-71
2024/03/04 06:29:34;;;;;;;19.77;13.40;;;;;;;;;;5009867;28;20038;-70
2024/03/04 06:32:03;;;;;;;19.05;13.25;;;282.10;2278.40;;;;;;5010257;28;20022;-72
2024/03/04 06:34:30;;;;;;;51.58;39.35;;;;;;;;;;5010091;28;20690;-71
2024/03/04 06:36:57;;;;;;;46.92;33.17;;;;;;;;;;5010474;28;20029;-73
2024/03/04 06:39:23;;;;;;;52.42;32.90;;;282.40;2278.40;;;;;;5009705;28;20022;-74
2024/03/04 06:41:49;;;;;;;69.65;46.22;;;282.40;2278.40;;;;;;5009832;28;20115;-71
2024/03/04 06:44:16;;;;;;;149.40;90.25;;;282.00;2278.40;;;;;;5010243;28;20034;-70
2024/03/04 06:46:42;;;;;;;99.28;60.90;;;256.80;2252.80;;;;;;5009524;28;20026;-71
2024/03/04 06:49:08;;;;;;;79.53;42.83;;;256.80;2252.80;;;;;;5010020;28;20045;-70
2024/03/04 06:51:36;;;;;;;70.20;44.78;;;281.80;2278.40;;;;;;5009655;28;20476;-69
2024/03/04 06:54:06;;;;;;;56.85;30.77;;;281.80;2278.40;;;;;;5009369;28;20026;-72
2024/03/04 06:56:32;;;;;;;53.33;33.38;;;281.80;2278.40;;;;;;5009394;28;20046;-71
2024/03/04 06:58:58;;;;;;;143.70;95.13;;;282.00;2278.40;;;;;;5009638;28;20053;-74
2024/03/04 07:01:25;;;;;;;117.15;84.78;;;282.10;2278.40;;;;;;5009489;28;20076;-71
2024/03/04 07:03:50;;;;;;;164.52;111.18;;;282.10;2278.40;;;;;;5009264;28;20550;-70
2024/03/04 07:06:16;;;;;;;121.07;82.47;;;282.10;2278.40;;;;;;5009572;28;20030;-70
2024/03/04 07:08:43;;;;;;;71.85;45.50;;;282.20;2278.40;;;;;;5003688;28;20076;-70
2024/03/04 07:11:10;;;;;;;61.95;42.88;;;282.40;2278.40;;;;;;5009589;28;20046;-80
2024/03/04 07:13:36;;;;;;;66.07;46.42;;;307.20;2304.00;;;;;;5009712;28;20026;-80
2024/03/04 07:16:02;;;;;;;68.80;45.97;;;282.00;2278.40;;;;;;4997400;28;20497;-80
2024/03/04 07:18:31;;;;;;;102.35;60.58;;;282.30;2278.40;;;;;;4983435;28;20117;-80
2024/03/04 07:21:01;;;;;;;65.65;38.75;;;282.20;2278.40;;;;;;5019618;28;20025;-80
2024/03/04 07:23:27;;;;;;;55.40;34.92;;;282.50;2278.40;;;;;;4991862;28;20384;-79
2024/03/04 07:25:53;;;;;;;43.30;27.27;;;282.40;2278.40;;;;;;5009063;28;20349;-80
2024/03/04 07:28:19;;;;;;;57.65;37.63;;;307.40;2304.00;;;;;;5011136;28;20061;-79
2024/03/04 07:30:46;;;;;;;39.80;25.95;;;307.30;2304.00;;;;;;5017830;28;20017;-73
2024/03/04 07:33:13;;;;;;;45.00;29.33;;;307.20;2304.00;;;;;;5001009;28;20052;-73
2024/03/04 07:35:39;;;;;;;24.67;17.98;;;;;;;;;;5008746;28;20022;-73
2024/03/04 07:38:05;;;;;;;40.63;26.15;;;;;;;;;;5009300;28;20032;-74
2024/03/04 07:40:31;;;;;;;43.42;29.00;;;;;;;;;;4984652;28;20022;-75
2024/03/04 07:42:58;;;;;;;44.83;26.83;;;;;;;;;;5010573;28;20440;-77
2024/03/04 07:45:24;;;;;;;37.00;26.60;;;;;;;;;;5024883;28;20029;-75
2024/03/04 07:47:51;;;;;;;37.65;25.27;;;;;;;;;;5027293;28;20056;-77
2024/03/04 07:50:17;;;;;;;56.17;37.38;;;;;;;;;;5021990;28;20427;-73
2024/03/04 07:52:43;;;;;;;58.35;40.80;;;;;;;;;;5009359;28;20060;-74
2024/03/04 07:55:11;;;;;;;54.72;38.97;;;;;;;;;;5009702;28;20029;-77
2024/03/04 07:57:39;;;;;;;66.75;48.85;;;308.00;2304.00;;;;;;5010408;28;20025;-86
2024/03/04 08:00:06;;;;;;;59.88;39.53;;;307.90;2304.00;;;;;;4998942;28;20030;-82
2024/03/04 08:02:32;;;;;;;75.78;56.30;;;308.10;2278.40;;;;;;4995860;28;20124;-75
2024/03/04 08:04:58;;;;;;;88.05;60.97;;;333.10;2304.00;;;;;;5005335;28;20544;-80
2024/03/04 08:07:23;;;;;;;124.72;89.15;;;333.20;2304.00;;;;;;5018739;28;20083;-85
2024/03/04 08:09:49;;;;;;;91.03;66.25;;;332.90;2329.60;;;;;;5019679;28;20030;-85
2024/03/04 08:12:16;;;;;;;63.03;42.25;;;333.10;2304.00;;;;;;5027407;28;20030;-84
2024/03/04 08:14:42;;;;;;;57.00;34.22;;;308.10;2278.40;;;;;;5027127;28;20108;-85
2024/03/04 08:17:11;;;;;;;43.05;27.58;;;308.00;2278.40;;;;;;5024881;28;20054;-87
2024/03/04 08:19:37;;;;;;;34.35;20.42;;;308.00;2278.40;;;;;;5013908;28;20033;-78
2024/03/04 08:22:07;;;;;;;57.33;39.85;;;308.00;2252.80;;;;;;5003944;28;20030;-77
2024/03/04 08:24:33;;;;;;;58.33;36.13;;;307.90;2278.40;;;;;;5025915;28;20059;-85
2024/03/04 08:26:59;;;;;;;75.63;52.83;;;308.00;2278.40;;;;;;5017713;28;20056;-86
2024/03/04 08:29:24;;;;;;;61.53;38.75;;;308.00;2304.00;;;;;;5026721;28;20088;-86
2024/03/04 08:31:50;;;;;;;40.20;25.50;;;308.00;2304.00;;;;;;5009110;28;20049;-81
2024/03/04 08:34:16;;;;;;;41.97;24.83;;;307.80;2304.00;;;;;;5009030;28;20057;-84
2024/03/04 08:36:41;;;;;;;55.95;32.83;;;307.70;2304.00;;;;;;5009084;28;20022;-81
2024/03/04 08:39:09;;;;;;;46.80;31.38;;;308.10;2304.00;;;;;;4995857;28;20098;-86
2024/03/04 08:41:42;;;;;;;85.78;52.22;;;333.00;2329.60;;;;;;5008599;28;20047;-85
2024/03/04 08:44:07;;;;;;;57.88;38.00;;;333.20;2304.00;;;;;;5008950;28;20025;-85
2024/03/04 08:46:33;;;;;;;53.45;35.55;;;333.20;2329.60;;;;;;5007307;28;20061;-84
2024/03/04 08:48:59;;;;;;;56.30;34.65;;;333.40;2329.60;;;;;;5003251;28;20089;-74
2024/03/04 08:51:26;;;;;;;72.97;43.97;;;333.30;2329.60;;;;;;4993557;28;20120;-80
2024/03/04 08:53:51;;;;;;;62.80;37.83;;;333.40;2329.60;;;;;;5000615;28;20137;-86
2024/03/04 08:56:17;;;;;;;58.88;38.88;;;333.40;2329.60;;;;;;5012431;28;20049;-86
2024/03/04 08:58:43;;;;;;;61.92;37.67;;;333.40;2329.60;;;;;;5012696;28;20030;-79
2024/03/04 09:01:09;;;;;;;52.83;31.95;;;333.30;2329.60;;;;;;5012499;28;20029;-85
2024/03/04 09:03:35;;;;;;;59.55;30.52;;;333.30;2329.60;;;;;;5007026;28;20041;-84
2024/03/04 09:06:01;;;;;;;64.38;34.90;;;333.20;2329.60;;;;;;5000238;28;20484;-85
2024/03/04 09:08:26;;;;;;;67.88;39.13;;;333.20;2329.60;;;;;;5018763;28;20039;-75
2024/03/04 09:10:54;;;;;;;68.15;36.60;;;333.50;2329.60;;;;;;5011279;28;20072;-73
2024/03/04 09:13:20;;;;;;;67.85;39.97;;;333.60;2329.60;;;;;;5011944;28;20690;-73
2024/03/04 09:15:45;;;;;;;74.15;46.17;;;358.40;2329.60;;;;;;5010684;28;20405;-74
2024/03/04 09:18:12;;;;;;;72.38;44.47;;;358.50;2329.60;;;;;;5011333;28;20380;-73
2024/03/04 09:20:38;;;;;;;71.90;45.92;;;358.50;2329.60;;;;;;5010698;28;20132;-74
2024/03/04 09:23:04;;;;;;;59.13;40.13;;;358.40;2329.60;;;;;;5003749;28;20097;-73
2024/03/04 09:25:30;;;;;;;77.70;47.05;;;358.60;2329.60;;;;;;5004699;28;20483;-73
2024/03/04 09:27:56;;;;;;;60.05;36.25;;;358.70;2329.60;;;;;;5011150;28;20499;-72
2024/03/04 09:30:23;;;;;;;77.57;45.30;;;358.90;2329.60;;;;;;5010590;28;20104;-73
2024/03/04 09:32:48;;;;;;;58.78;33.88;;;359.20;2304.00;;;;;;5011163;28;20117;-74
2024/03/04 09:35:15;;;;;;;63.90;33.05;;;359.30;2278.40;;;;;;5010414;28;20470;-72
2024/03/04 09:37:41;;;;;;;60.17;32.67;;;359.30;2278.40;;;;;;5011006;28;20025;-73
2024/03/04 09:40:09;;;;;;;62.45;37.03;;;384.10;2278.40;;;;;;5010238;28;20346;-73
2024/03/04 09:42:41;;;;;;;51.72;28.67;;;384.10;2278.40;;;;;;5011010;28;20044;-72
2024/03/04 09:45:09;;;;;;;61.50;40.67;;;384.80;2176.00;;;;;;5010139;28;20042;-78
2024/03/04 09:47:36;;;;;;;55.15;33.83;;;384.90;2227.20;;;;;;5010475;28;20491;-73
2024/03/04 09:50:02;;;;;;;49.03;28.00;;;409.70;2227.20;;;;;;5009705;28;20105;-74
2024/03/04 09:52:30;;;;;;;40.97;23.65;;;409.90;2227.20;;;;;;5010928;28;20056;-73
2024/03/04 09:54:57;;;;;;;33.83;19.42;;;409.60;2227.20;;;;;;5009866;28;20101;-73
2024/03/04 09:57:23;;;;;;;141.38;67.40;;;409.70;2227.20;;;;;;5010761;28;20037;-74
2024/03/04 09:59:49;;;;;;;46.67;25.48;;;435.20;2150.40;;;;;;5009883;28;20025;-73
2024/03/04 10:02:17;;;;;;;37.15;23.50;;;435.30;2124.80;;;;;;5010476;28;20022;-73
2024/03/04 10:04:43;;;;;;;31.92;17.38;;;435.80;2099.20;;;;;;5010123;28;20033;-73
2024/03/04 10:07:09;;;;;;;48.05;27.60;;;435.90;2073.60;;;;;;5010808;28;20034;-73
2024/03/04 10:09:35;;;;;;;68.95;40.15;;;461.00;2048.00;;;;;;5010595;28;20095;-73
2024/03/04 10:12:07;;;;;;;46.17;24.33;;;435.90;2073.60;;;;;;5010439;28;20025;-73
2024/03/04 10:14:33;;;;;;;36.88;20.40;;;435.90;2048.00;;;;;;5014311;28;20032;-75
2024/03/04 10:16:59;;;;;;;26.15;15.98;;;435.90;2022.40;;;;;;5015084;28;20011;-74
2024/03/04 10:19:31;;;;;;;36.72;20.10;;;436.10;1996.80;;;;;;5009848;28;20030;-74
2024/03/04 10:21:57;;;;;;;50.67;29.42;;;461.00;1996.80;;;;;;5010557;28;20022;-74
2024/03/04 10:24:22;;;;;;;62.70;36.30;;;461.30;1971.20;;;;;;5009603;28;20045;-74
2024/03/04 10:26:48;;;;;;;41.55;21.65;;;461.50;1971.20;;;;;;5018350;28;20045;-75
2024/03/04 10:29:18;;;;;;;60.20;31.50;;;460.80;1971.20;;;;;;5008501;28;20487;-73
2024/03/04 10:31:54;;;;;;;33.78;19.05;;;436.10;1971.20;;;;;;5022786;28;20014;-84
2024/03/04 10:34:20;;;;;;;27.25;14.05;;;461.10;1971.20;;;;;;5010211;28;20032;-88
2024/03/04 10:36:51;;;;;;;36.90;20.80;;;461.10;1945.60;;;;;;5010425;28;20025;-81
2024/03/04 10:39:17;;;;;;;46.17;25.35;;;461.00;1971.20;;;;;;5009982;28;20030;-77
2024/03/04 10:41:46;;;;;;;65.68;39.92;;;461.30;1920.00;;;;;;5009665;28;20022;-72
2024/03/04 10:44:32;;;;;;;44.92;24.35;;;461.40;1920.00;;;;;;5014794;28;20125;-73
2024/03/04 10:47:01;;;;;;;17.90;10.80;;;461.50;1894.40;;;;;;4996444;28;20026;-70
2024/03/04 10:49:28;;;;;;;30.75;17.63;;;461.40;1894.40;;;;;;5009533;28;20037;-73
2024/03/04 10:51:54;;;;;;;33.60;17.30;;;461.50;1920.00;;;;;;5009144;28;20018;-73
2024/03/04 10:54:22;;;;;;;21.33;11.35;;;486.40;1894.40;;;;;;5007633;28;20053;-72
2024/03/04 10:56:59;;;;;;;20.38;9.98;;;461.70;1894.40;;;;;;5016315;28;20088;-74
2024/03/04 10:59:48;;;;;;;16.67;10.18;;;461.50;1868.80;;;;;;5001877;28;20393;-75
2024/03/04 11:02:22;;;;;;;14.60;10.35;;;486.40;1868.80;;;;;;4983942;28;20380;-74
2024/03/04 11:04:53;;;;;;;14.70;7.47;;;461.60;1868.80;;;;;;5009331;28;20121;-75
2024/03/04 11:07:26;;;;;;;26.15;10.68;;;461.70;1843.20;;;;;;5009021;28;20080;-74
2024/03/04 11:09:55;;;;;;;25.63;15.90;;;486.60;1843.20;;;;;;5008812;28;20464;-74
2024/03/04 11:12:24;;;;;;;24.38;16.80;;;486.50;1817.60;;;;;;4997214;28;20030;-73
2024/03/04 11:15:00;;;;;;;42.58;28.15;;;487.00;1817.60;;;;;;5011275;28;20056;-74
2024/03/04 11:17:50;;;;;;;25.58;13.38;;;487.10;1817.60;;;;;;5013603;28;20033;-74
2024/03/04 11:20:18;;;;;;;19.15;10.85;;;487.10;1817.60;;;;;;4994641;28;20077;-73
2024/03/04 11:22:46;;;;;;;20.25;11.75;;;487.30;1792.00;;;;;;4996677;28;20025;-76
2024/03/04 11:25:13;;;;;;;15.82;8.02;;;487.00;1792.00;;;;;;5006498;28;20037;-73
2024/03/04 11:27:39;;;;;;;11.43;6.45;;;486.90;1792.00;;;;;;5008753;28;20050;-73
2024/03/04 11:30:06;;;;;;;10.88;6.15;;;486.70;1766.40;;;;;;5008766;28;20053;-74
2024/03/04 11:32:33;;;;;;;13.65;6.53;;;486.80;1766.40;;;;;;5008654;28;20098;-73
2024/03/04 11:35:07;;;;;;;16.88;5.55;;;487.00;1766.40;;;;;;5008564;28;20033;-74
2024/03/04 11:38:14;;;;;;;17.15;9.55;;;487.00;1740.80;;;;;;5008841;28;20021;-77
2024/03/04 11:40:39;;;;;;;10.25;6.65;;;487.00;1766.40;;;;;;4995494;28;20038;-72
2024/03/04 11:43:05;;;;;;;13.93;9.85;;;487.00;1766.40;;;;;;4993384;28;20085;-72
2024/03/04 11:45:33;;;;;;;18.48;10.52;;;487.30;1715.20;;;;;;4994142;28;20037;-73
2024/03/04 11:47:59;;;;;;;24.02;15.02;;;487.10;1715.20;;;;;;5010668;28;20366;-83
2024/03/04 11:50:37;;;;;;;21.63;14.30;;;512.10;1715.20;;;;;;4976975;28;20043;-76
2024/03/04 11:53:19;;;;;;;13.35;5.68;;;512.10;1740.80;;;;;;4998983;28;20083;-78
2024/03/04 11:55:46;;;;;;;39.45;26.50;;;512.10;1715.20;;;;;;4996398;28;20081;-73
2024/03/04 11:58:12;;;;;;;13.65;7.60;;;512.10;1740.80;;;;;;5005566;28;20029;-76
2024/03/04 12:00:39;;;;;;;18.50;11.60;;;487.20;1740.80;;;;;;5010083;28;20456;-76
2024/03/04 12:03:04;;;;;;;22.42;11.60;;;487.10;1740.80;;;;;;5005637;28;20188;-71
2024/03/04 12:05:31;;;;;;;10.77;7.05;;;487.00;1715.20;;;;;;4995270;28;20357;-74
2024/03/04 12:07:57;;;;;;;20.38;12.00;;;487.10;1715.20;;;;;;5000465;28;20018;-70
2024/03/04 12:10:23;;;;;;;21.20;11.18;;;487.30;1715.20;;;;;;4990395;28;20026;-73
2024/03/04 12:12:49;;;;;;;30.00;18.75;;;487.10;1715.20;;;;;;4999678;28;20543;-74
2024/03/04 12:15:14;;;;;;;27.88;13.63;;;512.20;1715.20;;;;;;4995647;28;20100;-73
2024/03/04 12:17:40;;;;;;;44.28;31.10;;;512.40;1689.60;;;;;;5006911;28;20101;-73
2024/03/04 12:20:08;;;;;;;27.15;17.67;;;512.30;1689.60;;;;;;4997275;28;20084;-75